createdAt,value
2022-11-11T00:00:07.006Z,7.36
2022-11-11T00:01:07.007Z,7.34
2022-11-11T00:02:07.017Z,7.32
2022-11-11T00:03:07.071Z,7.32
2022-11-11T00:04:06.973Z,7.32
2022-11-11T00:05:06.923Z,7.33
2022-11-11T00:06:12.927Z,7.32
2022-11-11T00:07:06.995Z,7.30
2022-11-11T00:08:06.912Z,7.28
2022-11-11T00:09:06.921Z,7.25
2022-11-11T00:10:06.865Z,7.22
2022-11-11T00:11:06.883Z,7.20
2022-11-11T00:12:06.882Z,7.18
2022-11-11T00:13:06.884Z,7.21
2022-11-11T00:14:06.856Z,7.25
2022-11-11T00:15:06.801Z,7.27
2022-11-11T00:16:06.791Z,7.26
2022-11-11T00:17:06.784Z,7.25
2022-11-11T00:18:06.773Z,7.26
2022-11-11T00:19:06.822Z,7.27
2022-11-11T00:20:06.732Z,7.27
2022-11-11T00:21:06.764Z,7.26
2022-11-11T00:22:06.779Z,7.25
2022-11-11T00:23:06.729Z,7.26
2022-11-11T00:24:06.724Z,7.28
2022-11-11T00:25:06.680Z,7.29
2022-11-11T00:26:33.121Z,7.29
2022-11-11T00:27:06.785Z,7.30
2022-11-11T00:28:06.655Z,7.31
2022-11-11T00:29:06.664Z,7.32
2022-11-11T00:30:06.608Z,7.31
2022-11-11T00:31:06.639Z,7.30
2022-11-11T00:32:06.651Z,7.30
2022-11-11T00:33:06.585Z,7.29
2022-11-11T00:34:06.626Z,7.29
2022-11-11T00:35:06.599Z,7.28
2022-11-11T00:36:06.557Z,7.25
2022-11-11T00:37:06.613Z,7.23
2022-11-11T00:38:06.547Z,7.21
2022-11-11T00:39:06.570Z,7.19
2022-11-11T00:40:06.482Z,7.18
2022-11-11T00:41:06.466Z,7.19
2022-11-11T00:42:06.489Z,7.21
2022-11-11T00:43:06.483Z,7.22
2022-11-11T00:44:06.477Z,7.21
2022-11-11T00:45:06.448Z,7.20
2022-11-11T00:46:06.412Z,7.20
2022-11-11T00:47:06.406Z,7.20
2022-11-11T00:48:06.432Z,7.17
2022-11-11T00:49:06.416Z,7.13
2022-11-11T00:50:06.356Z,7.08
2022-11-11T00:51:06.444Z,7.05
2022-11-11T00:52:06.411Z,7.04
2022-11-11T00:53:06.418Z,7.06
2022-11-11T00:54:06.364Z,7.06
2022-11-11T00:55:06.292Z,7.04
2022-11-11T00:56:06.282Z,7.01
2022-11-11T00:57:06.333Z,7.00
2022-11-11T00:58:06.287Z,7.00
2022-11-11T00:59:06.251Z,7.01
2022-11-11T01:00:06.268Z,7.01
2022-11-11T01:01:06.215Z,7.00
2022-11-11T01:02:06.312Z,6.98
2022-11-11T01:03:06.189Z,6.96
2022-11-11T01:04:06.234Z,6.95
2022-11-11T01:05:06.184Z,6.94
2022-11-11T01:06:06.147Z,6.95
2022-11-11T01:07:06.207Z,6.99
2022-11-11T01:08:06.205Z,7.03
2022-11-11T01:09:06.195Z,7.06
2022-11-11T01:10:06.127Z,7.08
2022-11-11T01:11:06.175Z,7.08
2022-11-11T01:12:06.083Z,7.06
2022-11-11T01:13:06.167Z,7.03
2022-11-11T01:14:06.077Z,6.99
2022-11-11T01:15:06.098Z,6.98
2022-11-11T01:16:06.072Z,6.97
2022-11-11T01:17:06.025Z,6.98
2022-11-11T01:18:06.014Z,7.00
2022-11-11T01:19:06.021Z,7.03
2022-11-11T01:20:05.978Z,7.04
2022-11-11T01:21:06.002Z,7.06
2022-11-11T01:22:05.996Z,7.08
2022-11-11T01:23:05.997Z,7.08
2022-11-11T01:24:05.999Z,7.07
2022-11-11T01:25:05.942Z,7.07
2022-11-11T01:26:05.982Z,7.06
2022-11-11T01:27:05.970Z,7.03
2022-11-11T01:28:05.916Z,7.00
2022-11-11T01:29:05.981Z,6.97
2022-11-11T01:30:05.960Z,6.93
2022-11-11T01:31:05.785Z,6.89
2022-11-11T01:32:05.860Z,6.86
2022-11-11T01:33:05.833Z,6.85
2022-11-11T01:34:05.787Z,6.84
2022-11-11T01:35:05.880Z,6.84
2022-11-11T01:36:05.911Z,6.85
2022-11-11T01:37:05.818Z,6.88
2022-11-11T01:38:05.786Z,6.92
2022-11-11T01:39:05.695Z,6.94
2022-11-11T01:40:05.718Z,6.95
2022-11-11T01:41:05.708Z,6.97
2022-11-11T01:42:05.705Z,6.98
2022-11-11T01:43:05.660Z,6.99
2022-11-11T01:44:05.631Z,6.99
2022-11-11T01:45:05.679Z,6.99
2022-11-11T01:46:05.621Z,7.01
2022-11-11T01:47:05.737Z,7.03
2022-11-11T01:49:05.708Z,7.09
2022-11-11T01:50:05.618Z,7.09
2022-11-11T01:51:05.561Z,7.09
2022-11-11T01:52:05.681Z,7.09
2022-11-11T01:53:05.533Z,7.10
2022-11-11T01:54:05.620Z,7.10
2022-11-11T01:55:05.660Z,7.11
2022-11-11T01:56:05.503Z,7.13
2022-11-11T01:57:05.530Z,7.12
2022-11-11T01:58:05.516Z,7.09
2022-11-11T01:59:05.560Z,7.06
2022-11-11T02:00:05.508Z,7.03
2022-11-11T02:01:05.486Z,7.03
2022-11-11T02:02:05.771Z,7.05
2022-11-11T02:03:05.598Z,7.06
2022-11-11T02:04:05.580Z,7.07
2022-11-11T02:05:05.465Z,7.07
2022-11-11T02:06:05.403Z,7.07
2022-11-11T02:07:05.473Z,7.07
2022-11-11T02:08:05.493Z,7.07
2022-11-11T02:09:05.304Z,7.07
2022-11-11T02:10:05.390Z,7.05
2022-11-11T02:11:05.320Z,7.04
2022-11-11T02:12:05.400Z,7.04
2022-11-11T02:13:05.282Z,7.03
2022-11-11T02:14:05.434Z,7.05
2022-11-11T02:15:05.412Z,7.07
2022-11-11T02:16:05.418Z,7.09
2022-11-11T02:17:05.330Z,7.11
2022-11-11T02:18:05.396Z,7.14
2022-11-11T02:19:05.264Z,7.15
2022-11-11T02:20:05.375Z,7.17
2022-11-11T02:21:05.323Z,7.18
2022-11-11T02:22:05.387Z,7.19
2022-11-11T02:23:05.287Z,7.19
2022-11-11T02:24:05.154Z,7.19
2022-11-11T02:25:05.287Z,7.19
2022-11-11T02:26:05.094Z,7.19
2022-11-11T02:27:05.272Z,7.18
2022-11-11T02:28:05.132Z,7.16
2022-11-11T02:29:05.064Z,7.15
2022-11-11T02:30:05.187Z,7.13
2022-11-11T02:31:05.081Z,7.10
2022-11-11T02:32:05.002Z,7.09
2022-11-11T02:33:05.047Z,7.08
2022-11-11T02:34:05.053Z,7.06
2022-11-11T02:35:04.968Z,7.04
2022-11-11T02:36:05.083Z,7.02
2022-11-11T02:37:04.995Z,7.00
2022-11-11T02:38:04.965Z,6.99
2022-11-11T02:39:05.031Z,6.98
2022-11-11T02:40:05.642Z,6.97
2022-11-11T02:41:04.934Z,6.95
2022-11-11T02:42:04.964Z,6.94
2022-11-11T02:43:04.978Z,6.94
2022-11-11T02:44:05.091Z,6.96
2022-11-11T02:45:05.047Z,6.97
2022-11-11T02:46:05.011Z,6.98
2022-11-11T02:47:04.969Z,6.98
2022-11-11T02:48:04.908Z,7.00
2022-11-11T02:49:04.876Z,7.02
2022-11-11T02:50:04.813Z,7.03
2022-11-11T02:51:04.899Z,7.06
2022-11-11T02:52:04.834Z,7.10
2022-11-11T02:53:05.146Z,7.11
2022-11-11T02:54:04.774Z,7.11
2022-11-11T02:55:05.103Z,7.11
2022-11-11T02:56:04.871Z,7.10
2022-11-11T02:57:04.768Z,7.10
2022-11-11T02:58:04.826Z,7.10
2022-11-11T02:59:04.738Z,7.08
2022-11-11T03:00:04.737Z,7.06
2022-11-11T03:01:04.831Z,7.04
2022-11-11T03:02:04.671Z,7.04
2022-11-11T03:03:04.691Z,7.04
2022-11-11T03:04:04.718Z,7.06
2022-11-11T03:05:04.767Z,7.07
2022-11-11T03:06:04.774Z,7.07
2022-11-11T03:07:04.773Z,7.06
2022-11-11T03:08:04.602Z,7.04
2022-11-11T03:09:04.662Z,7.03
2022-11-11T03:10:04.840Z,7.01
2022-11-11T03:11:04.569Z,7.00
2022-11-11T03:12:04.539Z,6.98
2022-11-11T03:13:04.512Z,6.96
2022-11-11T03:14:04.704Z,6.95
2022-11-11T03:15:04.501Z,6.94
2022-11-11T03:16:04.602Z,6.94
2022-11-11T03:17:04.615Z,6.93
2022-11-11T03:18:04.619Z,6.92
2022-11-11T03:19:04.526Z,6.93
2022-11-11T03:20:04.556Z,6.93
2022-11-11T03:21:35.646Z,6.93
2022-11-11T03:23:04.389Z,6.93
2022-11-11T03:24:04.313Z,6.92
2022-11-11T03:25:04.314Z,6.92
2022-11-11T03:26:04.351Z,6.92
2022-11-11T03:27:04.319Z,6.91
2022-11-11T03:28:04.273Z,6.90
2022-11-11T03:29:04.265Z,6.89
2022-11-11T03:30:04.227Z,6.88
2022-11-11T03:31:04.638Z,6.88
2022-11-11T03:32:04.221Z,6.90
2022-11-11T03:33:04.211Z,6.91
2022-11-11T03:34:04.235Z,6.93
2022-11-11T03:35:04.216Z,6.95
2022-11-11T03:36:04.172Z,6.96
2022-11-11T03:37:04.177Z,6.97
2022-11-11T03:38:04.178Z,6.97
2022-11-11T03:39:04.169Z,6.96
2022-11-11T03:40:04.164Z,6.95
2022-11-11T03:41:04.108Z,6.93
2022-11-11T03:42:04.066Z,6.93
2022-11-11T03:43:05.170Z,6.93
2022-11-11T03:44:04.033Z,6.93
2022-11-11T03:45:04.047Z,6.93
2022-11-11T03:46:04.019Z,6.92
2022-11-11T03:47:04.040Z,6.90
2022-11-11T03:48:04.059Z,6.88
2022-11-11T03:49:03.988Z,6.86
2022-11-11T03:50:03.974Z,6.84
2022-11-11T03:51:04.016Z,6.83
2022-11-11T03:52:03.944Z,6.81
2022-11-11T03:53:03.989Z,6.79
2022-11-11T03:54:03.904Z,6.77
2022-11-11T03:55:03.913Z,6.75
2022-11-11T03:56:03.892Z,6.74
2022-11-11T03:57:03.905Z,6.75
2022-11-11T03:58:04.016Z,6.77
2022-11-11T03:59:03.852Z,6.78
2022-11-11T04:00:07.518Z,6.79
2022-11-11T04:01:03.868Z,6.81
2022-11-11T04:02:03.912Z,6.86
2022-11-11T04:03:03.816Z,6.90
2022-11-11T04:04:03.823Z,6.93
2022-11-11T04:05:03.794Z,6.94
2022-11-11T04:06:03.795Z,6.95
2022-11-11T04:07:03.835Z,6.94
2022-11-11T04:08:03.773Z,6.94
2022-11-11T04:09:03.730Z,6.94
2022-11-11T04:10:03.709Z,6.94
2022-11-11T04:11:03.684Z,6.93
2022-11-11T04:12:03.666Z,6.93
2022-11-11T04:13:03.681Z,6.93
2022-11-11T04:14:03.639Z,6.94
2022-11-11T04:15:03.677Z,6.94
2022-11-11T04:16:03.651Z,6.95
2022-11-11T04:17:03.654Z,6.96
2022-11-11T04:18:04.419Z,6.95
2022-11-11T04:19:03.613Z,6.93
2022-11-11T04:20:03.585Z,6.91
2022-11-11T04:21:03.594Z,6.89
2022-11-11T04:22:03.646Z,6.88
2022-11-11T04:23:03.535Z,6.87
2022-11-11T04:24:03.514Z,6.87
2022-11-11T04:25:03.522Z,6.88
2022-11-11T04:26:03.499Z,6.89
2022-11-11T04:27:03.501Z,6.89
2022-11-11T04:28:03.483Z,6.89
2022-11-11T04:29:03.466Z,6.90
2022-11-11T04:30:03.431Z,6.90
2022-11-11T04:31:03.448Z,6.90
2022-11-11T04:32:03.417Z,6.90
2022-11-11T04:33:03.434Z,6.89
2022-11-11T04:34:03.393Z,6.88
2022-11-11T04:35:03.383Z,6.90
2022-11-11T04:36:03.360Z,6.93
2022-11-11T04:37:03.373Z,6.94
2022-11-11T04:38:03.335Z,6.95
2022-11-11T04:39:03.344Z,6.94
2022-11-11T04:40:03.315Z,6.93
2022-11-11T04:41:03.329Z,6.92
2022-11-11T04:42:10.553Z,6.92
2022-11-11T04:43:03.296Z,6.91
2022-11-11T04:44:03.249Z,6.90
2022-11-11T04:45:03.266Z,6.89
2022-11-11T04:46:03.228Z,6.89
2022-11-11T04:47:03.214Z,6.88
2022-11-11T04:48:03.262Z,6.86
2022-11-11T04:49:03.201Z,6.85
2022-11-11T04:50:07.127Z,6.85
2022-11-11T04:51:03.166Z,6.84
2022-11-11T04:52:03.167Z,6.82
2022-11-11T04:53:03.148Z,6.81
2022-11-11T04:54:03.139Z,6.79
2022-11-11T04:55:11.742Z,6.78
2022-11-11T04:56:03.124Z,6.77
2022-11-11T04:57:03.086Z,6.74
2022-11-11T04:58:03.071Z,6.73
2022-11-11T04:59:03.098Z,6.73
2022-11-11T05:00:03.089Z,6.77
2022-11-11T05:01:03.095Z,6.82
2022-11-11T05:02:03.003Z,6.84
2022-11-11T05:03:03.003Z,6.84
2022-11-11T05:04:02.994Z,6.82
2022-11-11T05:05:02.992Z,6.81
2022-11-11T05:06:02.988Z,6.80
2022-11-11T05:07:03.055Z,6.79
2022-11-11T05:08:02.924Z,6.79
2022-11-11T05:09:02.933Z,6.79
2022-11-11T05:10:02.909Z,6.79
2022-11-11T05:11:02.888Z,6.79
2022-11-11T05:12:02.906Z,6.81
2022-11-11T05:13:02.876Z,6.81
2022-11-11T05:14:02.844Z,6.81
2022-11-11T05:15:02.858Z,6.82
2022-11-11T05:16:02.855Z,6.83
2022-11-11T05:17:02.850Z,6.83
2022-11-11T05:18:02.790Z,6.84
2022-11-11T05:19:03.073Z,6.84
2022-11-11T05:20:02.799Z,6.85
2022-11-11T05:21:02.775Z,6.85
2022-11-11T05:22:02.761Z,6.86
2022-11-11T05:23:02.766Z,6.87
2022-11-11T05:24:02.733Z,6.89
2022-11-11T05:25:02.732Z,6.89
2022-11-11T05:26:02.683Z,6.89
2022-11-11T05:27:02.698Z,6.88
2022-11-11T05:28:02.665Z,6.88
2022-11-11T05:29:02.662Z,6.88
2022-11-11T05:30:02.628Z,6.90
2022-11-11T05:31:02.646Z,6.90
2022-11-11T05:32:02.603Z,6.89
2022-11-11T05:33:02.606Z,6.88
2022-11-11T05:34:02.584Z,6.86
2022-11-11T05:35:02.604Z,6.84
2022-11-11T05:36:02.578Z,6.81
2022-11-11T05:37:02.542Z,6.79
2022-11-11T05:38:02.574Z,6.77
2022-11-11T05:39:02.516Z,6.75
2022-11-11T05:40:02.546Z,6.74
2022-11-11T05:41:02.497Z,6.74
2022-11-11T05:42:02.484Z,6.73
2022-11-11T05:43:02.483Z,6.72
2022-11-11T05:44:02.461Z,6.72
2022-11-11T05:45:02.440Z,6.71
2022-11-11T05:46:02.421Z,6.70
2022-11-11T05:47:02.406Z,6.69
2022-11-11T05:48:02.395Z,6.67
2022-11-11T05:49:02.423Z,6.66
2022-11-11T05:50:02.386Z,6.65
2022-11-11T05:51:02.393Z,6.63
2022-11-11T05:52:02.352Z,6.60
2022-11-11T05:53:02.334Z,6.57
2022-11-11T05:54:02.316Z,6.53
2022-11-11T05:55:02.330Z,6.50
2022-11-11T05:56:02.299Z,6.48
2022-11-11T05:57:02.278Z,6.47
2022-11-11T05:58:02.272Z,6.45
2022-11-11T05:59:02.267Z,6.43
2022-11-11T06:00:02.251Z,6.43
2022-11-11T06:01:02.249Z,6.43
2022-11-11T06:02:02.297Z,6.44
2022-11-11T06:03:02.235Z,6.45
2022-11-11T06:04:02.183Z,6.47
2022-11-11T06:05:02.192Z,6.50
2022-11-11T06:06:02.159Z,6.53
2022-11-11T06:07:02.222Z,6.53
2022-11-11T06:08:02.124Z,6.53
2022-11-11T06:09:02.123Z,6.52
2022-11-11T06:10:02.135Z,6.52
2022-11-11T06:11:02.125Z,6.52
2022-11-11T06:12:02.075Z,6.55
2022-11-11T06:13:02.204Z,6.56
2022-11-11T06:14:02.062Z,6.57
2022-11-11T06:15:02.083Z,6.57
2022-11-11T06:16:02.054Z,6.57
2022-11-11T06:17:02.015Z,6.57
2022-11-11T06:18:02.035Z,6.59
2022-11-11T06:19:01.988Z,6.61
2022-11-11T06:20:01.967Z,6.62
2022-11-11T06:21:01.969Z,6.62
2022-11-11T06:22:01.994Z,6.61
2022-11-11T06:23:01.947Z,6.60
2022-11-11T06:24:01.914Z,6.60
2022-11-11T06:25:01.925Z,6.62
2022-11-11T06:26:01.889Z,6.64
2022-11-11T06:27:01.898Z,6.65
2022-11-11T06:28:01.915Z,6.65
2022-11-11T06:29:01.867Z,6.66
2022-11-11T06:30:36.820Z,6.67
2022-11-11T06:31:01.851Z,6.66
2022-11-11T06:32:01.862Z,6.67
2022-11-11T06:33:01.807Z,6.68
2022-11-11T06:34:01.793Z,6.70
2022-11-11T06:35:01.805Z,6.71
2022-11-11T06:36:01.795Z,6.71
2022-11-11T06:37:01.795Z,6.71
2022-11-11T06:38:01.747Z,6.71
2022-11-11T06:39:01.759Z,6.72
2022-11-11T06:40:01.738Z,6.73
2022-11-11T06:41:01.745Z,6.74
2022-11-11T06:42:01.707Z,6.76
2022-11-11T06:43:01.724Z,6.77
2022-11-11T06:44:01.697Z,6.78
2022-11-11T06:45:01.692Z,6.80
2022-11-11T06:46:01.661Z,6.83
2022-11-11T06:47:01.659Z,6.84
2022-11-11T06:48:01.668Z,6.84
2022-11-11T06:49:01.628Z,6.85
2022-11-11T06:50:01.643Z,6.85
2022-11-11T06:51:01.581Z,6.85
2022-11-11T06:52:01.593Z,6.85
2022-11-11T06:53:01.572Z,6.85
2022-11-11T06:54:01.561Z,6.86
2022-11-11T06:55:01.553Z,6.86
2022-11-11T06:56:01.537Z,6.88
2022-11-11T06:57:07.291Z,6.91
2022-11-11T06:58:01.499Z,6.93
2022-11-11T06:59:01.477Z,6.96
2022-11-11T07:00:01.476Z,6.99
2022-11-11T07:01:01.470Z,7.02
2022-11-11T07:02:01.463Z,7.05
2022-11-11T07:03:01.435Z,7.06
2022-11-11T07:04:01.413Z,7.08
2022-11-11T07:05:01.396Z,7.09
2022-11-11T07:06:01.416Z,7.09
2022-11-11T07:07:01.376Z,7.10
2022-11-11T07:08:01.383Z,7.12
2022-11-11T07:09:01.379Z,7.14
2022-11-11T07:10:01.392Z,7.17
2022-11-11T07:11:09.121Z,7.19
2022-11-11T07:12:01.312Z,7.21
2022-11-11T07:13:01.303Z,7.22
2022-11-11T07:14:01.321Z,7.23
2022-11-11T07:15:01.258Z,7.25
2022-11-11T07:16:01.287Z,7.26
2022-11-11T07:17:05.998Z,7.27
2022-11-11T07:18:01.213Z,7.28
2022-11-11T07:19:01.209Z,7.28
2022-11-11T07:20:01.225Z,7.28
2022-11-11T07:21:01.194Z,7.28
2022-11-11T07:22:01.193Z,7.29
2022-11-11T07:23:01.175Z,7.30
2022-11-11T07:24:01.143Z,7.31
2022-11-11T07:25:01.181Z,7.32
2022-11-11T07:26:01.158Z,7.34
2022-11-11T07:27:01.085Z,7.36
2022-11-11T07:28:01.096Z,7.38
2022-11-11T07:29:01.071Z,7.39
2022-11-11T07:30:01.090Z,7.41
2022-11-11T07:31:01.061Z,7.42
2022-11-11T07:32:01.059Z,7.43
2022-11-11T07:33:01.015Z,7.44
2022-11-11T07:34:01.034Z,7.45
2022-11-11T07:35:00.996Z,7.47
2022-11-11T07:36:01.011Z,7.48
2022-11-11T07:37:00.951Z,7.50
2022-11-11T07:38:00.935Z,7.51
2022-11-11T07:39:03.788Z,7.52
2022-11-11T07:40:00.966Z,7.53
2022-11-11T07:41:00.948Z,7.54
2022-11-11T07:42:00.883Z,7.55
2022-11-11T07:43:00.930Z,7.56
2022-11-11T07:44:00.886Z,7.57
2022-11-11T07:45:00.882Z,7.58
2022-11-11T07:46:00.844Z,7.60
2022-11-11T07:47:00.862Z,7.61
2022-11-11T07:48:00.821Z,7.63
2022-11-11T07:49:00.797Z,7.65
2022-11-11T07:50:04.438Z,7.67
2022-11-11T07:51:00.823Z,7.68
2022-11-11T07:52:00.792Z,7.70
2022-11-11T07:53:00.738Z,7.72
2022-11-11T07:54:00.738Z,7.73
2022-11-11T07:55:00.726Z,7.75
2022-11-11T07:56:00.711Z,7.77
2022-11-11T07:57:00.738Z,7.80
2022-11-11T07:58:00.722Z,7.82
2022-11-11T07:59:00.647Z,7.84
2022-11-11T08:00:00.653Z,7.85
2022-11-11T08:01:04.603Z,7.87
2022-11-11T08:02:00.682Z,7.89
2022-11-11T08:03:04.102Z,7.91
2022-11-11T08:04:00.613Z,7.93
2022-11-11T08:05:00.598Z,7.94
2022-11-11T08:06:00.585Z,7.96
2022-11-11T08:07:00.602Z,7.97
2022-11-11T08:08:00.578Z,7.99
2022-11-11T08:09:00.549Z,8.00
2022-11-11T08:10:00.567Z,8.02
2022-11-11T08:11:00.511Z,8.04
2022-11-11T08:12:00.483Z,8.06
2022-11-11T08:13:00.462Z,8.08
2022-11-11T08:14:00.493Z,8.11
2022-11-11T08:15:05.915Z,8.13
2022-11-11T08:16:00.433Z,8.15
2022-11-11T08:17:00.421Z,8.19
2022-11-11T08:18:00.422Z,8.23
2022-11-11T08:19:00.420Z,8.27
2022-11-11T08:20:00.387Z,8.32
2022-11-11T08:21:00.366Z,8.36
2022-11-11T08:22:00.373Z,8.40
2022-11-11T08:23:38.128Z,8.43
2022-11-11T08:25:05.029Z,8.49
2022-11-11T08:26:00.337Z,8.52
2022-11-11T08:27:00.295Z,8.54
2022-11-11T08:28:00.301Z,8.58
2022-11-11T08:29:00.277Z,8.61
2022-11-11T08:30:00.296Z,8.63
2022-11-11T08:31:04.051Z,8.66
2022-11-11T08:32:00.215Z,8.69
2022-11-11T08:33:31.165Z,8.71
2022-11-11T08:34:00.264Z,8.76
2022-11-11T08:35:00.221Z,8.83
2022-11-11T08:36:00.186Z,8.91
2022-11-11T08:37:00.139Z,9.00
2022-11-11T08:38:00.159Z,9.12
2022-11-11T08:39:00.120Z,9.26
2022-11-11T08:40:00.132Z,9.39
2022-11-11T08:41:00.130Z,9.51
2022-11-11T08:42:00.094Z,9.66
2022-11-11T08:43:00.060Z,9.81
2022-11-11T08:44:00.072Z,9.92
2022-11-11T08:45:00.052Z,9.99
2022-11-11T08:46:00.132Z,10.02
2022-11-11T08:47:00.004Z,10.02
2022-11-11T08:47:59.997Z,10.03
2022-11-11T08:48:59.983Z,10.02
2022-11-11T08:50:00.000Z,9.99
2022-11-11T08:50:59.999Z,9.95
2022-11-11T08:51:59.965Z,9.86
2022-11-11T08:52:59.945Z,9.77
2022-11-11T08:53:59.956Z,9.69
2022-11-11T08:54:59.932Z,9.66
2022-11-11T08:55:59.920Z,9.70
2022-11-11T08:56:59.898Z,9.73
2022-11-11T08:57:59.891Z,9.76
2022-11-11T08:58:59.842Z,9.84
2022-11-11T08:59:59.858Z,9.98
2022-11-11T09:00:59.930Z,10.14
2022-11-11T09:01:59.843Z,10.29
2022-11-11T09:02:59.804Z,10.42
2022-11-11T09:04:06.837Z,10.62
2022-11-11T09:04:59.787Z,10.84
2022-11-11T09:05:59.774Z,11.12
2022-11-11T09:06:59.799Z,11.41
2022-11-11T09:07:59.756Z,11.58
2022-11-11T09:08:59.740Z,11.71
2022-11-11T09:09:59.719Z,11.75
2022-11-11T09:10:59.695Z,11.69
2022-11-11T09:11:59.695Z,11.67
2022-11-11T09:12:59.680Z,11.72
2022-11-11T09:13:59.666Z,11.77
2022-11-11T09:14:59.644Z,11.86
2022-11-11T09:15:59.646Z,11.96
2022-11-11T09:16:59.616Z,12.02
2022-11-11T09:17:59.634Z,12.10
2022-11-11T09:18:59.591Z,12.11
2022-11-11T09:19:59.576Z,12.07
2022-11-11T09:20:59.570Z,12.10
2022-11-11T09:21:59.588Z,12.19
2022-11-11T09:22:59.537Z,12.21
2022-11-11T09:23:59.546Z,12.17
2022-11-11T09:24:59.511Z,12.13
2022-11-11T09:25:59.488Z,12.06
2022-11-11T09:26:59.489Z,12.00
2022-11-11T09:27:59.472Z,11.92
2022-11-11T09:28:59.469Z,11.92
2022-11-11T09:29:59.456Z,11.98
2022-11-11T09:31:16.423Z,12.10
2022-11-11T09:31:59.430Z,12.13
2022-11-11T09:32:59.405Z,12.04
2022-11-11T09:33:59.380Z,11.97
2022-11-11T09:34:59.433Z,11.91
2022-11-11T09:35:59.352Z,11.95
2022-11-11T09:36:59.356Z,12.04
2022-11-11T09:37:59.336Z,12.11
2022-11-11T09:38:59.316Z,12.23
2022-11-11T09:39:59.314Z,12.34
2022-11-11T09:40:59.304Z,12.42
2022-11-11T09:42:03.903Z,12.43
2022-11-11T09:42:59.272Z,12.25
2022-11-11T09:43:59.284Z,11.98
2022-11-11T09:44:59.238Z,11.79
2022-11-11T09:45:59.234Z,11.70
2022-11-11T09:46:59.231Z,11.72
2022-11-11T09:48:03.964Z,11.76
2022-11-11T09:48:59.208Z,11.80
2022-11-11T09:49:59.164Z,11.85
2022-11-11T09:50:59.157Z,11.87
2022-11-11T09:51:59.150Z,11.86
2022-11-11T09:52:59.139Z,11.79
2022-11-11T09:53:59.114Z,11.69
2022-11-11T09:54:59.110Z,11.60
2022-11-11T09:55:59.095Z,11.49
2022-11-11T09:56:59.081Z,11.39
2022-11-11T09:57:59.063Z,11.27
2022-11-11T09:58:59.050Z,11.14
2022-11-11T09:59:59.041Z,11.02
2022-11-11T10:00:59.048Z,10.94
2022-11-11T10:01:59.008Z,10.89
2022-11-11T10:02:58.979Z,10.87
2022-11-11T10:03:58.988Z,10.87
2022-11-11T10:04:58.967Z,10.91
2022-11-11T10:05:58.948Z,10.95
2022-11-11T10:06:59.018Z,10.95
2022-11-11T10:07:58.928Z,10.92
2022-11-11T10:08:58.916Z,10.88
2022-11-11T10:09:58.911Z,10.84
2022-11-11T10:10:58.874Z,10.80
2022-11-11T10:11:58.880Z,10.76
2022-11-11T10:12:58.873Z,10.73
2022-11-11T10:13:58.836Z,10.70
2022-11-11T10:14:58.836Z,10.67
2022-11-11T10:15:58.823Z,10.66
2022-11-11T10:16:58.818Z,10.69
2022-11-11T10:17:58.814Z,10.72
2022-11-11T10:18:58.808Z,10.75
2022-11-11T10:19:58.784Z,10.80
2022-11-11T10:20:58.776Z,10.85
2022-11-11T10:22:12.353Z,10.88
2022-11-11T10:22:58.759Z,10.89
2022-11-11T10:23:58.718Z,10.91
2022-11-11T10:24:58.706Z,10.94
2022-11-11T10:25:58.720Z,10.98
2022-11-11T10:26:58.677Z,11.00
2022-11-11T10:27:58.678Z,11.02
2022-11-11T10:28:58.663Z,11.06
2022-11-11T10:29:58.644Z,11.10
2022-11-11T10:30:58.618Z,11.14
2022-11-11T10:31:58.637Z,11.21
2022-11-11T10:32:58.704Z,11.27
2022-11-11T10:33:58.603Z,11.26
2022-11-11T10:34:58.576Z,11.22
2022-11-11T10:35:58.551Z,11.20
2022-11-11T10:36:58.552Z,11.22
2022-11-11T10:37:58.536Z,11.29
2022-11-11T10:38:58.538Z,11.36
2022-11-11T10:39:58.535Z,11.42
2022-11-11T10:40:58.476Z,11.43
2022-11-11T10:41:58.474Z,11.47
2022-11-11T10:42:58.460Z,11.54
2022-11-11T10:43:58.449Z,11.61
2022-11-11T10:45:03.522Z,11.65
2022-11-11T10:45:58.493Z,11.67
2022-11-11T10:46:58.394Z,11.68
2022-11-11T10:47:58.380Z,11.71
2022-11-11T10:48:58.436Z,11.77
2022-11-11T10:49:58.369Z,11.85
2022-11-11T10:50:58.356Z,11.89
2022-11-11T10:51:58.362Z,11.94
2022-11-11T10:52:58.318Z,12.07
2022-11-11T10:53:58.304Z,12.22
2022-11-11T10:54:58.304Z,12.33
2022-11-11T10:55:58.282Z,12.44
2022-11-11T10:56:58.267Z,12.55
2022-11-11T10:57:58.270Z,12.64
2022-11-11T10:58:58.233Z,12.73
2022-11-11T10:59:58.236Z,12.82
2022-11-11T11:00:58.297Z,12.89
2022-11-11T11:01:58.188Z,12.88
2022-11-11T11:02:58.192Z,12.81
2022-11-11T11:03:58.181Z,12.77
2022-11-11T11:04:58.164Z,12.72
2022-11-11T11:05:58.139Z,12.69
2022-11-11T11:06:58.191Z,12.71
2022-11-11T11:07:58.123Z,12.77
2022-11-11T11:08:58.095Z,12.81
2022-11-11T11:09:58.079Z,12.78
2022-11-11T11:10:58.090Z,12.69
2022-11-11T11:11:58.078Z,12.59
2022-11-11T11:12:58.045Z,12.55
2022-11-11T11:13:58.044Z,12.52
2022-11-11T11:14:58.034Z,12.49
2022-11-11T11:15:58.003Z,12.51
2022-11-11T11:16:58.043Z,12.57
2022-11-11T11:17:58.016Z,12.63
2022-11-11T11:18:57.964Z,12.69
2022-11-11T11:19:57.962Z,12.75
2022-11-11T11:20:57.961Z,12.80
2022-11-11T11:21:57.926Z,12.86
2022-11-11T11:22:57.921Z,12.96
2022-11-11T11:23:57.889Z,13.05
2022-11-11T11:24:57.905Z,13.08
2022-11-11T11:25:57.864Z,13.10
2022-11-11T11:26:57.867Z,13.13
2022-11-11T11:27:57.880Z,13.16
2022-11-11T11:28:57.832Z,13.07
2022-11-11T11:29:57.906Z,12.91
2022-11-11T11:30:57.820Z,12.81
2022-11-11T11:31:57.784Z,12.72
2022-11-11T11:32:57.781Z,12.60
2022-11-11T11:33:57.789Z,12.48
2022-11-11T11:34:57.754Z,12.41
2022-11-11T11:35:57.739Z,12.39
2022-11-11T11:36:57.737Z,12.36
2022-11-11T11:37:57.730Z,12.33
2022-11-11T11:38:57.729Z,12.33
2022-11-11T11:39:57.734Z,12.30
2022-11-11T11:40:57.687Z,12.24
2022-11-11T11:41:57.646Z,12.20
2022-11-11T11:42:57.640Z,12.14
2022-11-11T11:43:57.642Z,12.12
2022-11-11T11:44:57.624Z,12.14
2022-11-11T11:45:57.609Z,12.13
2022-11-11T11:46:57.602Z,12.03
2022-11-11T11:48:24.309Z,11.94
2022-11-11T11:48:57.562Z,11.94
2022-11-11T11:49:57.558Z,11.99
2022-11-11T11:50:57.536Z,12.07
2022-11-11T11:51:57.508Z,12.16
2022-11-11T11:52:57.503Z,12.19
2022-11-11T11:53:57.484Z,12.18
2022-11-11T11:54:57.475Z,12.16
2022-11-11T11:55:57.468Z,12.13
2022-11-11T11:56:57.487Z,12.09
2022-11-11T11:57:57.445Z,12.07
2022-11-11T11:58:57.447Z,12.04
2022-11-11T11:59:57.408Z,12.01
2022-11-11T12:00:57.435Z,11.97
2022-11-11T12:01:57.414Z,11.93
2022-11-11T12:02:57.379Z,11.88
2022-11-11T12:03:57.360Z,11.84
2022-11-11T12:04:57.354Z,11.81
2022-11-11T12:05:57.318Z,11.82
2022-11-11T12:06:57.422Z,11.87
2022-11-11T12:07:57.312Z,11.91
2022-11-11T12:08:57.320Z,11.91
2022-11-11T12:09:57.279Z,11.90
2022-11-11T12:10:57.307Z,11.89
2022-11-11T12:11:57.265Z,11.85
2022-11-11T12:12:57.275Z,11.83
2022-11-11T12:13:57.244Z,11.81
2022-11-11T12:14:57.251Z,11.77
2022-11-11T12:15:57.197Z,11.74
2022-11-11T12:16:57.234Z,11.73
2022-11-11T12:17:57.178Z,11.76
2022-11-11T12:18:57.191Z,11.79
2022-11-11T12:19:57.166Z,11.80
2022-11-11T12:20:57.139Z,11.81
2022-11-11T12:21:57.138Z,11.81
2022-11-11T12:22:57.122Z,11.84
2022-11-11T12:23:57.120Z,11.85
2022-11-11T12:24:57.086Z,11.86
2022-11-11T12:25:57.114Z,11.83
2022-11-11T12:26:57.085Z,11.77
2022-11-11T12:27:57.073Z,11.74
2022-11-11T12:28:57.097Z,11.72
2022-11-11T12:29:57.051Z,11.73
2022-11-11T12:30:57.030Z,11.76
2022-11-11T12:31:57.029Z,11.79
2022-11-11T12:32:56.964Z,11.80
2022-11-11T12:33:56.973Z,11.80
2022-11-11T12:34:56.988Z,11.81
2022-11-11T12:35:56.941Z,11.84
2022-11-11T12:36:56.968Z,11.89
2022-11-11T12:37:56.960Z,11.95
2022-11-11T12:38:56.944Z,11.99
2022-11-11T12:39:56.919Z,12.01
2022-11-11T12:40:56.910Z,12.00
2022-11-11T12:41:56.850Z,11.99
2022-11-11T12:42:56.850Z,11.97
2022-11-11T12:43:56.831Z,11.96
2022-11-11T12:44:56.816Z,11.94
2022-11-11T12:45:56.800Z,11.90
2022-11-11T12:46:56.797Z,11.88
2022-11-11T12:47:56.778Z,11.89
2022-11-11T12:48:56.777Z,11.92
2022-11-11T12:49:56.748Z,11.94
2022-11-11T12:50:59.317Z,11.94
2022-11-11T12:51:56.768Z,11.90
2022-11-11T12:52:56.694Z,11.88
2022-11-11T12:53:56.695Z,11.89
2022-11-11T12:54:56.704Z,11.87
2022-11-11T12:55:56.672Z,11.82
2022-11-11T12:56:56.656Z,11.81
2022-11-11T12:57:56.658Z,11.83
2022-11-11T12:58:56.672Z,11.83
2022-11-11T12:59:56.618Z,11.83
2022-11-11T13:00:56.647Z,11.83
2022-11-11T13:01:56.646Z,11.84
2022-11-11T13:02:56.609Z,11.85
2022-11-11T13:03:56.589Z,11.85
2022-11-11T13:04:56.578Z,11.84
2022-11-11T13:05:56.566Z,11.84
2022-11-11T13:06:56.585Z,11.86
2022-11-11T13:07:56.517Z,11.86
2022-11-11T13:08:56.568Z,11.85
2022-11-11T13:09:56.476Z,11.85
2022-11-11T13:10:59.091Z,11.83
2022-11-11T13:11:56.484Z,11.83